Huvudsida
METAR-TAF:

METAR-TAF

Flygplatser :

Kecskemét, Ungern

latitud: 46-55N, longitud: 019-45E, höjd: 113 m

Aktuellt väderrapport

Denna rapport gjordes för 27 minuter sedan, klockan 06:15 UTC
Vind 14 kt från nordost, varierande mellan nord och ost/nordost
Temperatur 8°C
Fuktighet 46%
Tryck 1027 hPa
Sikt 10 km eller mer
Inga moln under 1 500 m eller inga cumulonimbus

METAR: LHKE 050615Z 05014KT 010V070 CAVOK 08/M03 Q1027 R12/01//95 NOSIG RMK BLU

Tid: 08:42 (06:42 UTC)

Väderprognos

Denna rapport gjordes för 1 timme och 27 minuter sedan, klockan 05:15 UTC
Prognos gäller från 05 kl. 06 UTC till 05 kl. 15 UTC
Vind 11 kt från ost/nordost
Sikt 10 km eller mer
Inga moln under 1 500 m eller inga cumulonimbus
Temporärt
från 05 kl. 06 UTC till 05 kl. 15 UTC
Vind 12 kt från ost/nordost i byarna ända upp till 22 kt

TAF: LHKE 050515Z 0506/0515 06011KT CAVOK TEMPO 0506/0515 06012G22KT

Aktuella väderrapporter och prognoser från 4000 flygplatser (METAR- och TAF-rapporter).

De tillgängliga stationerna syns som gula och röda prickar på kartan.

För musen över prickarna för att se namnen på stationerna.

Klicka sedan för att få väderrapporter och prognoser.

För att ändra kartan: Klicka på de gröna knapparna med ett svart kors på för att zooma in; den gröna knappen med ett streck på för att zooma ut; eller på de gröna pilarna för angränsande kartor.


METAR-TAF: